sensor_id;sensor_type;location;lat;lon;timestamp;P1;durP1;ratioP1;P2;durP2;ratioP2
12846;SDS011;6492;48.128;8.320;2024-01-11T00:03:42;9.40;;;5.57;;
12846;SDS011;6492;48.128;8.320;2024-01-11T00:07:43;10.70;;;5.70;;
12846;SDS011;6492;48.128;8.320;2024-01-11T00:11:47;6.93;;;5.30;;
12846;SDS011;6492;48.128;8.320;2024-01-11T00:15:49;9.10;;;5.07;;
12846;SDS011;6492;48.128;8.320;2024-01-11T00:19:51;8.57;;;4.53;;
12846;SDS011;6492;48.128;8.320;2024-01-11T00:23:52;7.37;;;4.00;;
12846;SDS011;6492;48.128;8.320;2024-01-11T00:27:55;6.27;;;3.67;;
12846;SDS011;6492;48.128;8.320;2024-01-11T00:31:57;5.13;;;3.50;;
12846;SDS011;6492;48.128;8.320;2024-01-11T00:35:59;6.00;;;3.67;;
12846;SDS011;6492;48.128;8.320;2024-01-11T00:40:01;3.80;;;3.10;;
12846;SDS011;6492;48.128;8.320;2024-01-11T00:44:04;3.40;;;2.87;;
12846;SDS011;6492;48.128;8.320;2024-01-11T00:48:07;5.23;;;2.97;;
12846;SDS011;6492;48.128;8.320;2024-01-11T00:52:09;3.93;;;2.57;;
12846;SDS011;6492;48.128;8.320;2024-01-11T00:56:16;4.63;;;2.93;;
12846;SDS011;6492;48.128;8.320;2024-01-11T01:00:20;7.03;;;3.83;;
12846;SDS011;6492;48.128;8.320;2024-01-11T01:04:22;6.37;;;4.27;;
12846;SDS011;6492;48.128;8.320;2024-01-11T01:08:23;6.40;;;3.90;;
12846;SDS011;6492;48.128;8.320;2024-01-11T01:12:25;5.97;;;3.87;;
12846;SDS011;6492;48.128;8.320;2024-01-11T01:16:29;5.13;;;3.63;;
12846;SDS011;6492;48.128;8.320;2024-01-11T01:20:31;5.73;;;3.63;;
12846;SDS011;6492;48.128;8.320;2024-01-11T01:24:32;5.70;;;3.87;;
12846;SDS011;6492;48.128;8.320;2024-01-11T01:28:34;7.03;;;4.27;;
12846;SDS011;6492;48.128;8.320;2024-01-11T01:32:37;7.60;;;5.03;;
12846;SDS011;6492;48.128;8.320;2024-01-11T01:36:39;12.30;;;6.33;;
12846;SDS011;6492;48.128;8.320;2024-01-11T01:40:41;12.13;;;6.43;;
12846;SDS011;6492;48.128;8.320;2024-01-11T01:44:43;11.33;;;6.93;;
12846;SDS011;6492;48.128;8.320;2024-01-11T01:48:46;13.07;;;7.10;;
12846;SDS011;6492;48.128;8.320;2024-01-11T01:52:50;16.77;;;9.97;;
12846;SDS011;6492;48.128;8.320;2024-01-11T01:56:52;14.50;;;8.70;;
12846;SDS011;6492;48.128;8.320;2024-01-11T02:00:55;16.07;;;9.37;;
12846;SDS011;6492;48.128;8.320;2024-01-11T02:04:58;24.53;;;11.97;;
12846;SDS011;6492;48.128;8.320;2024-01-11T02:09:00;24.40;;;13.03;;
12846;SDS011;6492;48.128;8.320;2024-01-11T02:13:04;23.07;;;12.20;;
12846;SDS011;6492;48.128;8.320;2024-01-11T02:17:06;22.53;;;13.13;;
12846;SDS011;6492;48.128;8.320;2024-01-11T02:21:09;24.60;;;13.60;;
12846;SDS011;6492;48.128;8.320;2024-01-11T02:25:16;28.67;;;14.97;;
12846;SDS011;6492;48.128;8.320;2024-01-11T02:29:18;24.50;;;13.10;;
12846;SDS011;6492;48.128;8.320;2024-01-11T02:33:20;20.97;;;12.07;;
12846;SDS011;6492;48.128;8.320;2024-01-11T02:37:22;22.73;;;13.33;;
12846;SDS011;6492;48.128;8.320;2024-01-11T02:41:25;21.80;;;11.63;;
12846;SDS011;6492;48.128;8.320;2024-01-11T02:45:28;21.07;;;12.07;;
12846;SDS011;6492;48.128;8.320;2024-01-11T02:49:29;22.47;;;12.57;;
12846;SDS011;6492;48.128;8.320;2024-01-11T02:53:31;29.63;;;16.90;;
12846;SDS011;6492;48.128;8.320;2024-01-11T02:57:35;19.70;;;10.07;;
12846;SDS011;6492;48.128;8.320;2024-01-11T03:01:37;16.23;;;9.23;;
12846;SDS011;6492;48.128;8.320;2024-01-11T03:05:39;14.90;;;8.27;;
12846;SDS011;6492;48.128;8.320;2024-01-11T03:09:40;14.33;;;7.87;;
12846;SDS011;6492;48.128;8.320;2024-01-11T03:13:44;15.53;;;9.00;;
12846;SDS011;6492;48.128;8.320;2024-01-11T03:17:45;16.23;;;9.20;;
12846;SDS011;6492;48.128;8.320;2024-01-11T03:21:47;24.00;;;11.53;;
12846;SDS011;6492;48.128;8.320;2024-01-11T03:25:49;22.80;;;12.53;;
12846;SDS011;6492;48.128;8.320;2024-01-11T03:29:52;27.97;;;14.13;;
12846;SDS011;6492;48.128;8.320;2024-01-11T03:33:54;31.60;;;16.30;;
12846;SDS011;6492;48.128;8.320;2024-01-11T03:37:55;43.27;;;19.67;;
12846;SDS011;6492;48.128;8.320;2024-01-11T03:41:57;44.67;;;20.70;;
12846;SDS011;6492;48.128;8.320;2024-01-11T03:46:00;40.73;;;20.73;;
12846;SDS011;6492;48.128;8.320;2024-01-11T03:50:02;44.63;;;20.33;;
12846;SDS011;6492;48.128;8.320;2024-01-11T03:54:04;41.87;;;19.90;;
12846;SDS011;6492;48.128;8.320;2024-01-11T03:58:06;32.57;;;17.57;;
12846;SDS011;6492;48.128;8.320;2024-01-11T04:02:09;32.67;;;16.63;;
12846;SDS011;6492;48.128;8.320;2024-01-11T04:06:18;36.53;;;17.77;;
12846;SDS011;6492;48.128;8.320;2024-01-11T04:10:21;35.67;;;16.87;;
12846;SDS011;6492;48.128;8.320;2024-01-11T04:14:22;38.20;;;18.87;;
12846;SDS011;6492;48.128;8.320;2024-01-11T04:18:26;42.77;;;20.73;;
12846;SDS011;6492;48.128;8.320;2024-01-11T04:22:27;39.70;;;19.70;;
12846;SDS011;6492;48.128;8.320;2024-01-11T04:26:29;36.63;;;18.60;;
12846;SDS011;6492;48.128;8.320;2024-01-11T04:30:31;35.13;;;17.93;;
12846;SDS011;6492;48.128;8.320;2024-01-11T04:34:34;36.07;;;17.97;;
12846;SDS011;6492;48.128;8.320;2024-01-11T04:38:36;32.67;;;17.77;;
12846;SDS011;6492;48.128;8.320;2024-01-11T04:42:38;29.43;;;15.40;;
12846;SDS011;6492;48.128;8.320;2024-01-11T04:46:40;27.83;;;14.60;;
12846;SDS011;6492;48.128;8.320;2024-01-11T04:50:43;26.30;;;14.27;;
12846;SDS011;6492;48.128;8.320;2024-01-11T04:54:45;31.50;;;14.93;;
12846;SDS011;6492;48.128;8.320;2024-01-11T04:58:47;34.20;;;15.83;;
12846;SDS011;6492;48.128;8.320;2024-01-11T05:02:49;28.53;;;14.80;;
12846;SDS011;6492;48.128;8.320;2024-01-11T05:06:52;28.03;;;14.33;;
12846;SDS011;6492;48.128;8.320;2024-01-11T05:10:53;28.20;;;13.97;;
12846;SDS011;6492;48.128;8.320;2024-01-11T05:14:55;25.13;;;13.43;;
12846;SDS011;6492;48.128;8.320;2024-01-11T05:18:57;25.23;;;12.93;;
12846;SDS011;6492;48.128;8.320;2024-01-11T05:23:00;26.90;;;13.30;;
12846;SDS011;6492;48.128;8.320;2024-01-11T05:27:02;25.83;;;11.90;;
12846;SDS011;6492;48.128;8.320;2024-01-11T05:31:05;24.50;;;12.20;;
12846;SDS011;6492;48.128;8.320;2024-01-11T05:35:07;27.70;;;13.43;;
12846;SDS011;6492;48.128;8.320;2024-01-11T05:39:12;25.77;;;13.27;;
12846;SDS011;6492;48.128;8.320;2024-01-11T05:43:14;22.97;;;12.77;;
12846;SDS011;6492;48.128;8.320;2024-01-11T05:47:16;28.47;;;12.87;;
12846;SDS011;6492;48.128;8.320;2024-01-11T05:51:17;28.47;;;13.33;;
12846;SDS011;6492;48.128;8.320;2024-01-11T05:55:21;23.93;;;11.67;;
12846;SDS011;6492;48.128;8.320;2024-01-11T05:59:22;21.67;;;10.97;;
12846;SDS011;6492;48.128;8.320;2024-01-11T06:03:24;21.70;;;11.70;;
12846;SDS011;6492;48.128;8.320;2024-01-11T06:07:26;26.33;;;14.33;;
12846;SDS011;6492;48.128;8.320;2024-01-11T06:11:29;25.90;;;13.93;;
12846;SDS011;6492;48.128;8.320;2024-01-11T06:15:31;25.83;;;13.23;;
12846;SDS011;6492;48.128;8.320;2024-01-11T06:19:33;25.60;;;13.87;;
12846;SDS011;6492;48.128;8.320;2024-01-11T06:23:34;26.83;;;13.80;;
12846;SDS011;6492;48.128;8.320;2024-01-11T06:27:38;21.37;;;12.77;;
12846;SDS011;6492;48.128;8.320;2024-01-11T06:31:39;24.77;;;12.67;;
12846;SDS011;6492;48.128;8.320;2024-01-11T06:35:41;26.10;;;12.67;;
12846;SDS011;6492;48.128;8.320;2024-01-11T06:39:43;25.00;;;13.37;;
12846;SDS011;6492;48.128;8.320;2024-01-11T06:43:54;23.20;;;12.87;;
12846;SDS011;6492;48.128;8.320;2024-01-11T06:47:56;30.43;;;14.43;;
12846;SDS011;6492;48.128;8.320;2024-01-11T06:51:58;27.43;;;15.07;;
12846;SDS011;6492;48.128;8.320;2024-01-11T06:55:59;24.63;;;13.83;;
12846;SDS011;6492;48.128;8.320;2024-01-11T07:00:03;21.63;;;12.27;;
12846;SDS011;6492;48.128;8.320;2024-01-11T07:04:06;23.77;;;13.13;;
12846;SDS011;6492;48.128;8.320;2024-01-11T07:08:08;24.77;;;12.53;;
12846;SDS011;6492;48.128;8.320;2024-01-11T07:12:10;28.67;;;13.80;;
12846;SDS011;6492;48.128;8.320;2024-01-11T07:16:13;27.40;;;13.80;;
12846;SDS011;6492;48.128;8.320;2024-01-11T07:20:23;25.67;;;14.57;;
12846;SDS011;6492;48.128;8.320;2024-01-11T07:24:24;30.67;;;15.70;;
12846;SDS011;6492;48.128;8.320;2024-01-11T07:28:26;27.83;;;15.27;;
12846;SDS011;6492;48.128;8.320;2024-01-11T07:32:29;29.50;;;14.43;;
12846;SDS011;6492;48.128;8.320;2024-01-11T07:36:31;26.47;;;14.00;;
12846;SDS011;6492;48.128;8.320;2024-01-11T07:40:33;36.13;;;17.70;;
12846;SDS011;6492;48.128;8.320;2024-01-11T07:44:35;30.07;;;16.43;;
12846;SDS011;6492;48.128;8.320;2024-01-11T07:48:38;30.00;;;16.70;;
12846;SDS011;6492;48.128;8.320;2024-01-11T07:52:39;39.67;;;19.40;;
12846;SDS011;6492;48.128;8.320;2024-01-11T07:56:42;34.67;;;17.57;;
12846;SDS011;6492;48.128;8.320;2024-01-11T08:00:43;35.37;;;18.27;;
12846;SDS011;6492;48.128;8.320;2024-01-11T08:04:49;36.17;;;18.07;;
12846;SDS011;6492;48.128;8.320;2024-01-11T08:08:51;35.70;;;17.93;;
12846;SDS011;6492;48.128;8.320;2024-01-11T08:12:52;37.57;;;18.83;;
12846;SDS011;6492;48.128;8.320;2024-01-11T08:16:55;36.57;;;18.80;;
12846;SDS011;6492;48.128;8.320;2024-01-11T08:20:59;42.20;;;19.93;;
12846;SDS011;6492;48.128;8.320;2024-01-11T08:25:01;37.80;;;17.60;;
12846;SDS011;6492;48.128;8.320;2024-01-11T08:29:04;37.83;;;20.57;;
12846;SDS011;6492;48.128;8.320;2024-01-11T08:33:06;44.00;;;24.53;;
12846;SDS011;6492;48.128;8.320;2024-01-11T08:37:09;38.90;;;20.43;;
12846;SDS011;6492;48.128;8.320;2024-01-11T08:41:11;37.83;;;19.20;;
12846;SDS011;6492;48.128;8.320;2024-01-11T08:45:13;41.83;;;20.67;;
12846;SDS011;6492;48.128;8.320;2024-01-11T08:49:17;42.77;;;22.70;;
12846;SDS011;6492;48.128;8.320;2024-01-11T08:53:21;49.43;;;26.20;;
12846;SDS011;6492;48.128;8.320;2024-01-11T08:57:22;46.30;;;24.13;;
12846;SDS011;6492;48.128;8.320;2024-01-11T09:01:24;42.07;;;23.37;;
12846;SDS011;6492;48.128;8.320;2024-01-11T09:05:26;42.20;;;23.17;;
12846;SDS011;6492;48.128;8.320;2024-01-11T09:09:29;46.60;;;24.07;;
12846;SDS011;6492;48.128;8.320;2024-01-11T09:13:31;48.33;;;22.70;;
12846;SDS011;6492;48.128;8.320;2024-01-11T09:17:33;40.50;;;21.67;;
12846;SDS011;6492;48.128;8.320;2024-01-11T09:21:35;43.57;;;22.30;;
12846;SDS011;6492;48.128;8.320;2024-01-11T09:25:38;41.30;;;21.00;;
12846;SDS011;6492;48.128;8.320;2024-01-11T09:29:46;42.70;;;23.20;;
12846;SDS011;6492;48.128;8.320;2024-01-11T09:33:47;41.10;;;20.07;;
12846;SDS011;6492;48.128;8.320;2024-01-11T09:37:50;35.67;;;18.93;;
12846;SDS011;6492;48.128;8.320;2024-01-11T09:41:57;37.97;;;19.03;;
12846;SDS011;6492;48.128;8.320;2024-01-11T09:46:00;33.47;;;18.93;;
12846;SDS011;6492;48.128;8.320;2024-01-11T09:50:05;38.43;;;20.53;;
12846;SDS011;6492;48.128;8.320;2024-01-11T09:54:08;36.33;;;20.60;;
12846;SDS011;6492;48.128;8.320;2024-01-11T09:58:12;34.53;;;18.30;;
12846;SDS011;6492;48.128;8.320;2024-01-11T10:02:15;32.37;;;17.57;;
12846;SDS011;6492;48.128;8.320;2024-01-11T10:06:17;33.10;;;18.23;;
12846;SDS011;6492;48.128;8.320;2024-01-11T10:10:20;29.40;;;17.73;;
12846;SDS011;6492;48.128;8.320;2024-01-11T10:14:23;27.00;;;16.10;;
12846;SDS011;6492;48.128;8.320;2024-01-11T10:18:25;30.10;;;16.20;;
12846;SDS011;6492;48.128;8.320;2024-01-11T10:22:27;31.93;;;16.93;;
12846;SDS011;6492;48.128;8.320;2024-01-11T10:26:29;33.77;;;17.93;;
12846;SDS011;6492;48.128;8.320;2024-01-11T10:30:33;34.93;;;18.77;;
12846;SDS011;6492;48.128;8.320;2024-01-11T10:34:36;34.83;;;20.40;;
12846;SDS011;6492;48.128;8.320;2024-01-11T10:38:41;34.60;;;19.80;;
12846;SDS011;6492;48.128;8.320;2024-01-11T10:42:45;31.47;;;18.90;;
12846;SDS011;6492;48.128;8.320;2024-01-11T10:46:53;30.93;;;18.57;;
12846;SDS011;6492;48.128;8.320;2024-01-11T10:50:57;27.17;;;18.50;;
12846;SDS011;6492;48.128;8.320;2024-01-11T10:55:02;29.97;;;18.27;;
12846;SDS011;6492;48.128;8.320;2024-01-11T10:59:05;30.03;;;17.97;;
12846;SDS011;6492;48.128;8.320;2024-01-11T11:03:08;29.37;;;16.90;;
12846;SDS011;6492;48.128;8.320;2024-01-11T11:07:12;27.80;;;16.77;;
12846;SDS011;6492;48.128;8.320;2024-01-11T11:11:17;28.73;;;16.90;;
12846;SDS011;6492;48.128;8.320;2024-01-11T11:15:20;28.00;;;16.70;;
12846;SDS011;6492;48.128;8.320;2024-01-11T11:19:25;26.03;;;16.17;;
12846;SDS011;6492;48.128;8.320;2024-01-11T11:23:27;21.30;;;13.20;;
12846;SDS011;6492;48.128;8.320;2024-01-11T11:27:28;17.47;;;11.27;;
12846;SDS011;6492;48.128;8.320;2024-01-11T11:31:35;18.47;;;11.57;;
12846;SDS011;6492;48.128;8.320;2024-01-11T11:35:38;17.10;;;11.10;;
12846;SDS011;6492;48.128;8.320;2024-01-11T11:39:41;20.07;;;12.50;;
12846;SDS011;6492;48.128;8.320;2024-01-11T11:43:43;19.90;;;11.70;;
12846;SDS011;6492;48.128;8.320;2024-01-11T11:47:49;16.67;;;11.50;;
12846;SDS011;6492;48.128;8.320;2024-01-11T11:51:53;18.57;;;11.77;;
12846;SDS011;6492;48.128;8.320;2024-01-11T11:55:58;18.40;;;11.97;;
12846;SDS011;6492;48.128;8.320;2024-01-11T11:59:59;16.87;;;11.47;;
12846;SDS011;6492;48.128;8.320;2024-01-11T12:04:05;15.47;;;10.20;;
12846;SDS011;6492;48.128;8.320;2024-01-11T12:08:10;15.17;;;10.70;;
12846;SDS011;6492;48.128;8.320;2024-01-11T12:12:12;16.30;;;11.63;;
12846;SDS011;6492;48.128;8.320;2024-01-11T12:16:15;17.23;;;11.57;;
12846;SDS011;6492;48.128;8.320;2024-01-11T12:20:16;16.17;;;10.83;;
12846;SDS011;6492;48.128;8.320;2024-01-11T12:24:21;16.70;;;11.17;;
12846;SDS011;6492;48.128;8.320;2024-01-11T12:28:23;15.53;;;10.83;;
12846;SDS011;6492;48.128;8.320;2024-01-11T12:32:25;15.20;;;10.67;;
12846;SDS011;6492;48.128;8.320;2024-01-11T12:36:27;14.57;;;9.93;;
12846;SDS011;6492;48.128;8.320;2024-01-11T12:40:32;14.00;;;10.37;;
12846;SDS011;6492;48.128;8.320;2024-01-11T12:44:37;17.60;;;11.73;;
12846;SDS011;6492;48.128;8.320;2024-01-11T12:48:40;23.50;;;14.03;;
12846;SDS011;6492;48.128;8.320;2024-01-11T12:52:43;21.63;;;14.50;;
12846;SDS011;6492;48.128;8.320;2024-01-11T12:56:46;22.13;;;15.30;;
12846;SDS011;6492;48.128;8.320;2024-01-11T13:00:50;24.87;;;16.03;;
12846;SDS011;6492;48.128;8.320;2024-01-11T13:04:52;25.80;;;15.13;;
12846;SDS011;6492;48.128;8.320;2024-01-11T13:08:53;20.40;;;13.90;;
12846;SDS011;6492;48.128;8.320;2024-01-11T13:12:58;22.97;;;15.70;;
12846;SDS011;6492;48.128;8.320;2024-01-11T13:17:00;24.43;;;15.87;;
12846;SDS011;6492;48.128;8.320;2024-01-11T13:21:02;26.50;;;16.37;;
12846;SDS011;6492;48.128;8.320;2024-01-11T13:25:04;22.13;;;14.37;;
12846;SDS011;6492;48.128;8.320;2024-01-11T13:29:07;20.87;;;14.23;;
12846;SDS011;6492;48.128;8.320;2024-01-11T13:33:11;18.80;;;13.00;;
12846;SDS011;6492;48.128;8.320;2024-01-11T13:37:14;22.07;;;14.83;;
12846;SDS011;6492;48.128;8.320;2024-01-11T13:41:17;22.87;;;15.63;;
12846;SDS011;6492;48.128;8.320;2024-01-11T13:45:21;23.97;;;16.23;;
12846;SDS011;6492;48.128;8.320;2024-01-11T13:49:22;20.90;;;14.83;;
12846;SDS011;6492;48.128;8.320;2024-01-11T13:53:25;23.33;;;16.33;;
12846;SDS011;6492;48.128;8.320;2024-01-11T13:57:26;25.93;;;16.73;;
12846;SDS011;6492;48.128;8.320;2024-01-11T14:01:29;19.80;;;14.70;;
12846;SDS011;6492;48.128;8.320;2024-01-11T14:05:31;24.60;;;16.63;;
12846;SDS011;6492;48.128;8.320;2024-01-11T14:09:34;23.73;;;17.03;;
12846;SDS011;6492;48.128;8.320;2024-01-11T14:13:36;20.83;;;14.27;;
12846;SDS011;6492;48.128;8.320;2024-01-11T14:17:39;19.67;;;13.43;;
12846;SDS011;6492;48.128;8.320;2024-01-11T14:21:41;18.10;;;12.97;;
12846;SDS011;6492;48.128;8.320;2024-01-11T14:25:43;20.90;;;14.10;;
12846;SDS011;6492;48.128;8.320;2024-01-11T14:29:44;22.33;;;14.23;;
12846;SDS011;6492;48.128;8.320;2024-01-11T14:33:48;22.27;;;14.20;;
12846;SDS011;6492;48.128;8.320;2024-01-11T14:37:50;19.90;;;13.43;;
12846;SDS011;6492;48.128;8.320;2024-01-11T14:41:52;21.37;;;14.20;;
12846;SDS011;6492;48.128;8.320;2024-01-11T14:45:54;20.13;;;14.07;;
12846;SDS011;6492;48.128;8.320;2024-01-11T14:49:57;27.13;;;15.63;;
12846;SDS011;6492;48.128;8.320;2024-01-11T14:54:00;23.60;;;15.30;;
12846;SDS011;6492;48.128;8.320;2024-01-11T14:58:03;28.13;;;17.87;;
12846;SDS011;6492;48.128;8.320;2024-01-11T15:02:05;22.73;;;15.10;;
12846;SDS011;6492;48.128;8.320;2024-01-11T15:06:09;25.40;;;14.43;;
12846;SDS011;6492;48.128;8.320;2024-01-11T15:10:10;24.60;;;15.53;;
12846;SDS011;6492;48.128;8.320;2024-01-11T15:14:12;24.87;;;16.20;;
12846;SDS011;6492;48.128;8.320;2024-01-11T15:18:14;21.87;;;15.07;;
12846;SDS011;6492;48.128;8.320;2024-01-11T15:22:17;24.37;;;15.33;;
12846;SDS011;6492;48.128;8.320;2024-01-11T15:26:19;27.07;;;16.27;;
12846;SDS011;6492;48.128;8.320;2024-01-11T15:30:21;27.97;;;17.10;;
12846;SDS011;6492;48.128;8.320;2024-01-11T15:34:23;26.00;;;16.67;;
12846;SDS011;6492;48.128;8.320;2024-01-11T15:38:26;27.60;;;17.20;;
12846;SDS011;6492;48.128;8.320;2024-01-11T15:42:28;29.77;;;18.50;;
12846;SDS011;6492;48.128;8.320;2024-01-11T15:46:29;28.30;;;17.77;;
12846;SDS011;6492;48.128;8.320;2024-01-11T15:50:31;31.53;;;19.63;;
12846;SDS011;6492;48.128;8.320;2024-01-11T15:54:34;29.40;;;16.83;;
12846;SDS011;6492;48.128;8.320;2024-01-11T15:58:36;32.40;;;19.17;;
12846;SDS011;6492;48.128;8.320;2024-01-11T16:02:39;28.53;;;17.77;;
12846;SDS011;6492;48.128;8.320;2024-01-11T16:06:42;41.30;;;24.30;;
12846;SDS011;6492;48.128;8.320;2024-01-11T16:10:45;34.07;;;20.33;;
12846;SDS011;6492;48.128;8.320;2024-01-11T16:14:46;36.13;;;21.23;;
12846;SDS011;6492;48.128;8.320;2024-01-11T16:18:48;35.73;;;23.70;;
12846;SDS011;6492;48.128;8.320;2024-01-11T16:22:50;35.93;;;20.93;;
12846;SDS011;6492;48.128;8.320;2024-01-11T16:26:53;32.43;;;18.87;;
12846;SDS011;6492;48.128;8.320;2024-01-11T16:30:55;36.40;;;20.87;;
12846;SDS011;6492;48.128;8.320;2024-01-11T16:34:57;37.10;;;22.10;;
12846;SDS011;6492;48.128;8.320;2024-01-11T16:39:00;39.70;;;21.87;;
12846;SDS011;6492;48.128;8.320;2024-01-11T16:43:07;40.93;;;22.90;;
12846;SDS011;6492;48.128;8.320;2024-01-11T16:47:10;40.83;;;23.03;;
12846;SDS011;6492;48.128;8.320;2024-01-11T16:51:12;39.37;;;22.37;;
12846;SDS011;6492;48.128;8.320;2024-01-11T16:55:13;35.53;;;20.83;;
12846;SDS011;6492;48.128;8.320;2024-01-11T16:59:17;38.10;;;22.13;;
12846;SDS011;6492;48.128;8.320;2024-01-11T17:03:18;43.07;;;23.63;;
12846;SDS011;6492;48.128;8.320;2024-01-11T17:07:20;44.70;;;24.87;;
12846;SDS011;6492;48.128;8.320;2024-01-11T17:11:22;55.67;;;31.33;;
12846;SDS011;6492;48.128;8.320;2024-01-11T17:15:25;50.20;;;27.07;;
12846;SDS011;6492;48.128;8.320;2024-01-11T17:19:27;49.03;;;26.50;;
12846;SDS011;6492;48.128;8.320;2024-01-11T17:23:30;42.70;;;24.43;;
12846;SDS011;6492;48.128;8.320;2024-01-11T17:27:32;50.63;;;27.60;;
12846;SDS011;6492;48.128;8.320;2024-01-11T17:31:35;39.17;;;23.10;;
12846;SDS011;6492;48.128;8.320;2024-01-11T17:35:43;45.07;;;23.83;;
12846;SDS011;6492;48.128;8.320;2024-01-11T17:39:47;38.47;;;22.83;;
12846;SDS011;6492;48.128;8.320;2024-01-11T17:43:49;43.67;;;25.43;;
12846;SDS011;6492;48.128;8.320;2024-01-11T17:47:59;42.97;;;25.03;;
12846;SDS011;6492;48.128;8.320;2024-01-11T17:52:01;47.93;;;26.10;;
12846;SDS011;6492;48.128;8.320;2024-01-11T17:56:03;46.33;;;26.63;;
12846;SDS011;6492;48.128;8.320;2024-01-11T18:00:05;46.73;;;25.77;;
12846;SDS011;6492;48.128;8.320;2024-01-11T18:04:09;49.33;;;26.00;;
12846;SDS011;6492;48.128;8.320;2024-01-11T18:08:11;44.47;;;24.63;;
12846;SDS011;6492;48.128;8.320;2024-01-11T18:12:12;54.40;;;30.03;;
12846;SDS011;6492;48.128;8.320;2024-01-11T18:16:14;54.73;;;29.03;;
12846;SDS011;6492;48.128;8.320;2024-01-11T18:20:17;81.70;;;38.87;;
12846;SDS011;6492;48.128;8.320;2024-01-11T18:24:19;60.17;;;31.23;;
12846;SDS011;6492;48.128;8.320;2024-01-11T18:28:23;47.93;;;26.70;;
12846;SDS011;6492;48.128;8.320;2024-01-11T18:32:25;51.23;;;29.13;;
12846;SDS011;6492;48.128;8.320;2024-01-11T18:36:28;53.27;;;27.33;;
12846;SDS011;6492;48.128;8.320;2024-01-11T18:40:30;45.83;;;26.13;;
12846;SDS011;6492;48.128;8.320;2024-01-11T18:44:32;50.67;;;28.10;;
12846;SDS011;6492;48.128;8.320;2024-01-11T18:48:34;52.30;;;29.23;;
12846;SDS011;6492;48.128;8.320;2024-01-11T18:52:43;58.97;;;30.43;;
12846;SDS011;6492;48.128;8.320;2024-01-11T18:56:46;63.53;;;32.37;;
12846;SDS011;6492;48.128;8.320;2024-01-11T19:00:48;61.57;;;30.50;;
12846;SDS011;6492;48.128;8.320;2024-01-11T19:04:50;57.53;;;31.47;;
12846;SDS011;6492;48.128;8.320;2024-01-11T19:08:55;58.93;;;31.30;;
12846;SDS011;6492;48.128;8.320;2024-01-11T19:12:57;55.47;;;29.23;;
12846;SDS011;6492;48.128;8.320;2024-01-11T19:16:59;48.00;;;27.67;;
12846;SDS011;6492;48.128;8.320;2024-01-11T19:21:05;51.63;;;27.30;;
12846;SDS011;6492;48.128;8.320;2024-01-11T19:25:08;54.10;;;29.10;;
12846;SDS011;6492;48.128;8.320;2024-01-11T19:29:10;51.30;;;27.80;;
12846;SDS011;6492;48.128;8.320;2024-01-11T19:33:11;47.47;;;25.00;;
12846;SDS011;6492;48.128;8.320;2024-01-11T19:37:14;49.83;;;26.13;;
12846;SDS011;6492;48.128;8.320;2024-01-11T19:41:21;53.77;;;28.70;;
12846;SDS011;6492;48.128;8.320;2024-01-11T19:45:31;56.47;;;28.83;;
12846;SDS011;6492;48.128;8.320;2024-01-11T19:49:39;58.53;;;31.77;;
12846;SDS011;6492;48.128;8.320;2024-01-11T19:53:41;62.17;;;30.77;;
12846;SDS011;6492;48.128;8.320;2024-01-11T19:57:44;56.87;;;30.93;;
12846;SDS011;6492;48.128;8.320;2024-01-11T20:01:46;62.63;;;30.30;;
12846;SDS011;6492;48.128;8.320;2024-01-11T20:09:54;55.63;;;30.10;;
12846;SDS011;6492;48.128;8.320;2024-01-11T20:13:57;53.83;;;28.47;;
12846;SDS011;6492;48.128;8.320;2024-01-11T20:17:59;54.40;;;28.00;;
12846;SDS011;6492;48.128;8.320;2024-01-11T20:22:01;51.03;;;25.13;;
12846;SDS011;6492;48.128;8.320;2024-01-11T20:26:03;58.33;;;29.33;;
12846;SDS011;6492;48.128;8.320;2024-01-11T20:30:07;55.63;;;28.50;;
12846;SDS011;6492;48.128;8.320;2024-01-11T20:34:11;50.63;;;27.30;;
12846;SDS011;6492;48.128;8.320;2024-01-11T20:38:14;46.97;;;25.73;;
12846;SDS011;6492;48.128;8.320;2024-01-11T20:42:16;51.10;;;26.50;;
12846;SDS011;6492;48.128;8.320;2024-01-11T20:46:22;53.57;;;26.70;;
12846;SDS011;6492;48.128;8.320;2024-01-11T20:50:24;55.77;;;28.63;;
12846;SDS011;6492;48.128;8.320;2024-01-11T20:54:27;61.70;;;29.07;;
12846;SDS011;6492;48.128;8.320;2024-01-11T20:58:28;60.97;;;29.90;;
12846;SDS011;6492;48.128;8.320;2024-01-11T21:02:35;51.37;;;28.50;;
12846;SDS011;6492;48.128;8.320;2024-01-11T21:06:38;50.90;;;26.13;;
12846;SDS011;6492;48.128;8.320;2024-01-11T21:10:42;58.87;;;27.20;;
12846;SDS011;6492;48.128;8.320;2024-01-11T21:14:45;45.57;;;25.03;;
12846;SDS011;6492;48.128;8.320;2024-01-11T21:18:49;50.33;;;26.83;;
12846;SDS011;6492;48.128;8.320;2024-01-11T21:22:53;58.73;;;30.53;;
12846;SDS011;6492;48.128;8.320;2024-01-11T21:26:55;51.17;;;29.87;;
12846;SDS011;6492;48.128;8.320;2024-01-11T21:30:57;44.67;;;24.83;;
12846;SDS011;6492;48.128;8.320;2024-01-11T21:35:00;51.77;;;26.60;;
12846;SDS011;6492;48.128;8.320;2024-01-11T21:39:02;46.83;;;26.43;;
12846;SDS011;6492;48.128;8.320;2024-01-11T21:43:06;54.10;;;25.73;;
12846;SDS011;6492;48.128;8.320;2024-01-11T21:47:08;51.67;;;26.90;;
12846;SDS011;6492;48.128;8.320;2024-01-11T21:51:13;46.83;;;24.67;;
12846;SDS011;6492;48.128;8.320;2024-01-11T21:55:15;44.77;;;24.07;;
12846;SDS011;6492;48.128;8.320;2024-01-11T21:59:17;44.20;;;23.27;;
12846;SDS011;6492;48.128;8.320;2024-01-11T22:03:19;47.07;;;24.13;;
12846;SDS011;6492;48.128;8.320;2024-01-11T22:07:22;40.77;;;22.20;;
12846;SDS011;6492;48.128;8.320;2024-01-11T22:11:26;44.57;;;24.87;;
12846;SDS011;6492;48.128;8.320;2024-01-11T22:15:29;43.50;;;23.10;;
12846;SDS011;6492;48.128;8.320;2024-01-11T22:19:34;43.80;;;23.47;;
12846;SDS011;6492;48.128;8.320;2024-01-11T22:23:37;39.67;;;21.23;;
12846;SDS011;6492;48.128;8.320;2024-01-11T22:27:39;42.10;;;21.70;;
12846;SDS011;6492;48.128;8.320;2024-01-11T22:31:40;40.13;;;21.00;;
12846;SDS011;6492;48.128;8.320;2024-01-11T22:35:42;36.20;;;20.60;;
12846;SDS011;6492;48.128;8.320;2024-01-11T22:39:47;37.20;;;18.73;;
12846;SDS011;6492;48.128;8.320;2024-01-11T22:43:49;30.20;;;17.20;;
12846;SDS011;6492;48.128;8.320;2024-01-11T22:47:52;29.87;;;16.20;;
12846;SDS011;6492;48.128;8.320;2024-01-11T22:51:54;27.70;;;15.30;;
12846;SDS011;6492;48.128;8.320;2024-01-11T22:55:57;24.57;;;14.43;;
12846;SDS011;6492;48.128;8.320;2024-01-11T22:59:59;23.17;;;11.90;;
12846;SDS011;6492;48.128;8.320;2024-01-11T23:04:01;20.57;;;10.47;;
12846;SDS011;6492;48.128;8.320;2024-01-11T23:08:03;19.20;;;10.17;;
12846;SDS011;6492;48.128;8.320;2024-01-11T23:12:06;17.13;;;9.93;;
12846;SDS011;6492;48.128;8.320;2024-01-11T23:16:09;25.10;;;13.33;;
12846;SDS011;6492;48.128;8.320;2024-01-11T23:20:11;25.73;;;15.50;;
12846;SDS011;6492;48.128;8.320;2024-01-11T23:24:13;34.10;;;18.70;;
12846;SDS011;6492;48.128;8.320;2024-01-11T23:28:23;34.97;;;18.87;;
12846;SDS011;6492;48.128;8.320;2024-01-11T23:32:26;39.17;;;20.57;;
12846;SDS011;6492;48.128;8.320;2024-01-11T23:36:28;28.60;;;17.20;;
12846;SDS011;6492;48.128;8.320;2024-01-11T23:40:29;28.57;;;16.20;;
12846;SDS011;6492;48.128;8.320;2024-01-11T23:44:33;26.70;;;15.77;;
12846;SDS011;6492;48.128;8.320;2024-01-11T23:48:34;27.40;;;15.53;;
12846;SDS011;6492;48.128;8.320;2024-01-11T23:52:36;33.97;;;16.50;;
12846;SDS011;6492;48.128;8.320;2024-01-11T23:56:39;26.47;;;14.93;;
